createdAt,value
2023-06-18T00:02:14.864Z,16.41
2023-06-18T00:04:42.608Z,16.40
2023-06-18T00:07:10.452Z,16.36
2023-06-18T00:09:38.327Z,16.29
2023-06-18T00:12:07.066Z,16.31
2023-06-18T00:14:36.425Z,16.30
2023-06-18T00:17:04.366Z,16.32
2023-06-18T00:19:32.132Z,16.31
2023-06-18T00:22:00.293Z,16.28
2023-06-18T00:24:28.209Z,16.21
2023-06-18T00:26:56.053Z,16.23
2023-06-18T00:29:23.840Z,16.18
2023-06-18T00:31:53.102Z,16.10
2023-06-18T00:34:21.794Z,16.02
2023-06-18T00:36:51.725Z,16.07
2023-06-18T00:39:19.641Z,15.97
2023-06-18T00:41:47.523Z,15.87
2023-06-18T00:44:15.533Z,15.91
2023-06-18T00:46:47.594Z,15.86
2023-06-18T00:49:19.633Z,15.82
2023-06-18T00:51:47.827Z,15.78
2023-06-18T00:54:16.707Z,15.77
2023-06-18T00:56:51.989Z,15.73
2023-06-18T00:59:23.555Z,15.74
2023-06-18T01:01:52.356Z,15.73
2023-06-18T01:04:24.895Z,15.67
2023-06-18T01:06:55.202Z,15.66
2023-06-18T01:09:25.129Z,15.65
2023-06-18T01:11:53.569Z,15.65
2023-06-18T01:14:22.856Z,15.61
2023-06-18T01:16:52.637Z,15.58
2023-06-18T01:19:36.650Z,15.49
2023-06-18T01:22:12.883Z,15.50
2023-06-18T01:24:44.793Z,15.41
2023-06-18T01:27:13.804Z,15.36
2023-06-18T01:29:42.499Z,15.31
2023-06-18T01:32:10.634Z,15.33
2023-06-18T01:34:41.112Z,15.30
2023-06-18T01:37:18.983Z,15.21
2023-06-18T01:39:54.948Z,15.19
2023-06-18T01:42:26.808Z,15.12
2023-06-18T01:44:59.429Z,15.10
2023-06-18T01:47:30.347Z,15.08
2023-06-18T01:50:02.816Z,15.03
2023-06-18T01:52:34.170Z,15.04
2023-06-18T01:55:04.590Z,15.01
2023-06-18T01:57:33.480Z,14.98
2023-06-18T02:00:01.854Z,14.97
2023-06-18T02:02:29.822Z,15.01
2023-06-18T02:04:59.130Z,15.02
2023-06-18T02:07:26.892Z,14.96
2023-06-18T02:09:54.707Z,15.07
2023-06-18T02:12:22.522Z,15.09
2023-06-18T02:14:50.339Z,15.13
2023-06-18T02:17:18.119Z,15.15
2023-06-18T02:19:46.921Z,15.17
2023-06-18T02:22:16.254Z,15.11
2023-06-18T02:24:47.125Z,15.10
2023-06-18T02:27:14.945Z,15.12
2023-06-18T02:29:43.816Z,15.20
2023-06-18T02:32:12.755Z,15.16
2023-06-18T02:34:41.269Z,15.17
2023-06-18T02:37:10.698Z,15.13
2023-06-18T02:39:40.184Z,15.08
2023-06-18T02:42:10.390Z,14.98
2023-06-18T02:44:40.388Z,15.05
2023-06-18T02:47:09.164Z,15.08
2023-06-18T02:49:37.492Z,15.05
2023-06-18T02:52:07.574Z,15.07
2023-06-18T02:54:35.450Z,15.04
2023-06-18T02:57:05.166Z,15.04
2023-06-18T02:59:32.980Z,15.05
2023-06-18T03:02:01.988Z,15.05
2023-06-18T03:04:29.893Z,15.07
2023-06-18T03:07:00.431Z,15.11
2023-06-18T03:09:29.838Z,15.12
2023-06-18T03:11:58.070Z,15.05
2023-06-18T03:14:27.644Z,15.06
2023-06-18T03:16:58.132Z,15.05
2023-06-18T03:19:26.408Z,14.96
2023-06-18T03:21:54.192Z,14.99
2023-06-18T03:24:22.090Z,15.01
2023-06-18T03:26:50.036Z,15.02
2023-06-18T03:29:19.262Z,15.07
2023-06-18T03:31:48.602Z,15.10
2023-06-18T03:34:17.251Z,15.15
2023-06-18T03:36:47.867Z,15.14
2023-06-18T03:39:17.107Z,15.20
2023-06-18T03:41:45.076Z,15.26
2023-06-18T03:44:14.121Z,15.30
2023-06-18T03:46:42.450Z,15.28
2023-06-18T03:49:11.741Z,15.35
2023-06-18T03:51:39.560Z,15.40
2023-06-18T03:54:08.668Z,15.50
2023-06-18T03:56:36.687Z,15.53
2023-06-18T03:59:07.056Z,15.54
2023-06-18T04:01:35.063Z,15.58
2023-06-18T04:04:04.867Z,15.65
2023-06-18T04:06:34.457Z,15.67
2023-06-18T04:09:02.429Z,15.68
2023-06-18T04:11:30.366Z,15.54
2023-06-18T04:13:58.324Z,15.63
2023-06-18T04:16:26.348Z,15.74
2023-06-18T04:18:55.449Z,15.78
2023-06-18T04:21:23.251Z,15.84
2023-06-18T04:23:52.453Z,15.94
2023-06-18T04:26:20.384Z,16.00
2023-06-18T04:28:49.146Z,16.09
2023-06-18T04:31:16.968Z,16.11
2023-06-18T04:33:44.758Z,16.19
2023-06-18T04:36:12.593Z,16.28
2023-06-18T04:38:42.044Z,16.38
2023-06-18T04:41:11.226Z,16.43
2023-06-18T04:43:39.208Z,16.44
2023-06-18T04:46:07.388Z,16.53
2023-06-18T04:48:35.263Z,16.49
2023-06-18T04:51:03.899Z,16.62
2023-06-18T04:53:33.662Z,16.67
2023-06-18T04:56:01.741Z,16.70
2023-06-18T04:58:38.768Z,16.82
2023-06-18T05:01:07.244Z,16.92
2023-06-18T05:03:35.234Z,16.98
2023-06-18T05:06:04.973Z,16.87
2023-06-18T05:08:34.252Z,17.04
2023-06-18T05:11:02.269Z,17.04
2023-06-18T05:13:32.511Z,17.19
2023-06-18T05:16:02.121Z,17.34
2023-06-18T05:18:31.491Z,17.57
2023-06-18T05:20:59.305Z,17.79
2023-06-18T05:23:28.552Z,17.97
2023-06-18T05:25:56.759Z,18.13
2023-06-18T05:28:24.610Z,18.29
2023-06-18T05:30:52.874Z,18.48
2023-06-18T05:33:22.623Z,18.59
2023-06-18T05:35:56.683Z,18.83
2023-06-18T05:38:24.538Z,18.97
2023-06-18T05:40:52.450Z,19.06
2023-06-18T05:43:20.708Z,19.25
2023-06-18T05:45:52.901Z,19.48
2023-06-18T05:48:22.242Z,19.70
2023-06-18T05:51:03.369Z,19.84
2023-06-18T05:53:31.277Z,20.00
2023-06-18T05:55:59.128Z,20.15
2023-06-18T05:58:27.648Z,20.29
2023-06-18T06:00:55.651Z,20.44
2023-06-18T06:03:24.870Z,20.64
2023-06-18T06:05:52.884Z,20.79
2023-06-18T06:08:20.726Z,21.04
2023-06-18T06:10:53.859Z,21.25
2023-06-18T06:13:22.315Z,21.28
2023-06-18T06:15:55.422Z,21.45
2023-06-18T06:18:24.599Z,21.42
2023-06-18T06:20:52.442Z,21.58
2023-06-18T06:23:21.376Z,21.72
2023-06-18T06:25:49.347Z,21.95
2023-06-18T06:28:18.068Z,22.05
2023-06-18T06:30:46.403Z,22.13
2023-06-18T06:33:14.342Z,22.23
2023-06-18T06:35:44.613Z,22.27
2023-06-18T06:38:14.474Z,22.32
2023-06-18T06:40:42.285Z,22.28
2023-06-18T06:43:10.070Z,22.35
2023-06-18T06:46:06.909Z,22.41
2023-06-18T06:48:53.734Z,22.50
2023-06-18T06:51:37.663Z,22.77
2023-06-18T06:54:12.106Z,22.90
2023-06-18T06:56:39.984Z,23.06
2023-06-18T06:59:11.052Z,23.12
2023-06-18T07:01:40.615Z,23.30
2023-06-18T07:04:08.542Z,23.50
2023-06-18T07:06:39.594Z,23.61
2023-06-18T07:09:07.977Z,23.79
2023-06-18T07:11:37.540Z,24.13
2023-06-18T07:14:05.995Z,24.26
2023-06-18T07:16:34.292Z,24.34
2023-06-18T07:19:02.375Z,23.95
2023-06-18T07:21:30.270Z,24.10
2023-06-18T07:23:59.498Z,24.14
2023-06-18T07:26:27.229Z,24.24
2023-06-18T07:28:55.056Z,24.34
2023-06-18T07:31:22.835Z,24.24
2023-06-18T07:33:50.606Z,24.51
2023-06-18T07:36:18.394Z,24.50
2023-06-18T07:38:46.143Z,24.79
2023-06-18T07:41:15.326Z,25.19
2023-06-18T07:43:43.262Z,25.07
2023-06-18T07:46:11.156Z,25.10
2023-06-18T07:48:39.088Z,24.99
2023-06-18T07:51:06.999Z,25.04
2023-06-18T07:53:34.793Z,25.00
2023-06-18T07:56:02.613Z,25.43
2023-06-18T07:58:31.884Z,25.46
2023-06-18T08:00:59.724Z,25.68
2023-06-18T08:03:27.524Z,25.44
2023-06-18T08:05:55.422Z,25.73
2023-06-18T08:08:23.192Z,25.77
2023-06-18T08:10:51.698Z,25.73
2023-06-18T08:13:19.590Z,25.62
2023-06-18T08:15:48.851Z,25.41
2023-06-18T08:18:16.689Z,25.48
2023-06-18T08:20:44.490Z,25.57
2023-06-18T08:23:12.307Z,25.62
2023-06-18T08:25:40.050Z,25.74
2023-06-18T08:28:07.802Z,25.91
2023-06-18T08:30:35.582Z,26.06
2023-06-18T08:33:04.825Z,26.22
2023-06-18T08:35:32.633Z,26.24
2023-06-18T08:38:00.464Z,26.10
2023-06-18T08:40:30.578Z,26.08
2023-06-18T08:43:06.706Z,26.16
2023-06-18T08:45:35.453Z,26.14
2023-06-18T08:48:15.643Z,26.14
2023-06-18T08:51:00.445Z,26.02
2023-06-18T08:53:42.470Z,26.19
2023-06-18T08:56:11.242Z,26.25
2023-06-18T08:58:45.622Z,26.44
2023-06-18T09:01:14.425Z,26.67
2023-06-18T09:03:44.126Z,26.45
2023-06-18T09:06:13.507Z,26.72
2023-06-18T09:08:41.731Z,27.28
2023-06-18T09:11:09.887Z,27.32
2023-06-18T09:13:41.757Z,27.35
2023-06-18T09:16:09.744Z,27.21
2023-06-18T09:18:37.704Z,27.29
2023-06-18T09:21:06.968Z,27.72
2023-06-18T09:23:35.117Z,28.04
2023-06-18T09:26:03.868Z,28.11
2023-06-18T09:28:32.309Z,28.03
2023-06-18T09:31:01.587Z,27.84
2023-06-18T09:33:31.728Z,28.03
2023-06-18T09:36:04.136Z,28.17
2023-06-18T09:38:37.975Z,28.28
2023-06-18T09:41:12.828Z,28.39
2023-06-18T09:43:42.557Z,28.64
2023-06-18T09:46:10.933Z,28.60
2023-06-18T09:48:42.792Z,28.76
2023-06-18T09:51:11.795Z,28.44
2023-06-18T09:53:41.133Z,28.76
2023-06-18T09:56:10.575Z,29.38
2023-06-18T09:58:43.591Z,28.78
2023-06-18T10:01:12.033Z,28.72
2023-06-18T10:03:40.476Z,28.64
2023-06-18T10:06:13.682Z,28.41
2023-06-18T10:08:44.526Z,28.53
2023-06-18T10:11:12.907Z,29.05
2023-06-18T10:13:46.806Z,29.18
2023-06-18T10:16:16.647Z,29.45
2023-06-18T10:18:59.471Z,29.50
2023-06-18T10:21:30.141Z,29.70
2023-06-18T10:24:08.265Z,29.33
2023-06-18T10:26:37.991Z,29.50
2023-06-18T10:29:06.657Z,29.47
2023-06-18T10:31:34.599Z,29.26
2023-06-18T10:34:02.590Z,29.58
2023-06-18T10:36:30.709Z,29.47
2023-06-18T10:39:00.672Z,29.54
2023-06-18T10:41:28.511Z,29.72
2023-06-18T10:43:57.415Z,30.40
2023-06-18T10:46:25.415Z,30.86
2023-06-18T10:49:15.268Z,30.91
2023-06-18T10:51:43.663Z,31.13
2023-06-18T10:54:24.061Z,31.12
2023-06-18T10:56:53.572Z,31.25
2023-06-18T10:59:45.012Z,31.48
2023-06-18T11:02:14.228Z,32.16
2023-06-18T11:04:42.639Z,32.72
2023-06-18T11:07:15.348Z,32.98
2023-06-18T11:09:53.326Z,33.52
2023-06-18T11:12:22.726Z,33.23
2023-06-18T11:15:18.274Z,33.30
2023-06-18T11:17:49.545Z,32.31
2023-06-18T11:20:18.968Z,31.42
2023-06-18T11:22:47.111Z,31.32
2023-06-18T11:25:19.705Z,30.87
2023-06-18T11:27:49.345Z,31.19
2023-06-18T11:30:19.875Z,31.70
2023-06-18T11:32:48.424Z,32.09
2023-06-18T11:35:16.829Z,32.53
2023-06-18T11:37:46.158Z,33.46
2023-06-18T11:40:14.296Z,33.81
2023-06-18T11:42:51.360Z,33.14
2023-06-18T11:45:20.934Z,32.96
2023-06-18T11:47:51.582Z,31.98
2023-06-18T11:50:21.961Z,32.73
2023-06-18T11:52:49.900Z,31.74
2023-06-18T11:55:19.382Z,32.91
2023-06-18T11:57:48.857Z,33.94
2023-06-18T12:00:17.914Z,34.32
2023-06-18T12:02:45.730Z,34.56
2023-06-18T12:05:13.880Z,35.89
2023-06-18T12:07:43.436Z,35.08
2023-06-18T12:10:13.487Z,34.27
2023-06-18T12:12:53.250Z,34.99
2023-06-18T12:15:27.767Z,35.71
2023-06-18T12:17:58.183Z,35.47
2023-06-18T12:20:29.025Z,36.21
2023-06-18T12:22:58.493Z,35.84
2023-06-18T12:25:28.954Z,36.76
2023-06-18T12:28:00.291Z,36.91
2023-06-18T12:30:30.688Z,34.70
2023-06-18T12:33:04.258Z,34.66
2023-06-18T12:35:32.598Z,35.88
2023-06-18T12:38:05.408Z,36.83
2023-06-18T12:40:33.838Z,36.29
2023-06-18T12:43:09.390Z,34.42
2023-06-18T12:45:38.463Z,33.89
2023-06-18T12:48:14.749Z,33.85
2023-06-18T12:50:47.001Z,33.83
2023-06-18T12:53:21.523Z,34.14
2023-06-18T12:55:52.133Z,36.16
2023-06-18T12:58:26.178Z,35.61
2023-06-18T13:00:55.346Z,34.82
2023-06-18T13:03:24.241Z,34.46
2023-06-18T13:05:52.414Z,34.45
2023-06-18T13:08:21.765Z,34.09
2023-06-18T13:10:51.077Z,34.38
2023-06-18T13:13:19.814Z,35.20
2023-06-18T13:15:50.450Z,34.34
2023-06-18T13:18:19.059Z,33.87
2023-06-18T13:20:48.493Z,33.15
2023-06-18T13:23:16.755Z,33.46
2023-06-18T13:25:45.725Z,33.55
2023-06-18T13:28:13.902Z,33.83
2023-06-18T13:30:41.723Z,33.61
2023-06-18T13:33:11.026Z,34.13
2023-06-18T13:35:39.687Z,33.41
2023-06-18T13:38:09.206Z,32.58
2023-06-18T13:40:37.079Z,31.99
2023-06-18T13:43:05.101Z,31.87
2023-06-18T13:45:32.857Z,32.18
2023-06-18T13:48:00.741Z,32.09
2023-06-18T13:50:29.957Z,31.66
2023-06-18T13:52:57.762Z,31.93
2023-06-18T13:55:26.657Z,31.50
2023-06-18T13:57:54.437Z,31.36
2023-06-18T14:00:22.584Z,31.38
2023-06-18T14:02:50.621Z,31.25
2023-06-18T14:05:18.619Z,31.32
2023-06-18T14:07:47.856Z,31.40
2023-06-18T14:10:15.786Z,31.33
2023-06-18T14:12:43.587Z,31.24
2023-06-18T14:15:13.658Z,31.39
2023-06-18T14:17:47.125Z,31.88
2023-06-18T14:20:17.215Z,32.06
2023-06-18T14:22:45.569Z,31.80
2023-06-18T14:25:14.672Z,31.67
2023-06-18T14:27:42.511Z,31.85
2023-06-18T14:30:13.127Z,31.75
2023-06-18T14:32:42.467Z,31.65
2023-06-18T14:35:10.742Z,31.62
2023-06-18T14:37:38.500Z,31.41
2023-06-18T14:40:07.449Z,31.19
2023-06-18T14:42:36.628Z,30.79
2023-06-18T14:45:05.446Z,30.41
2023-06-18T14:47:33.302Z,30.33
2023-06-18T14:50:01.139Z,30.32
2023-06-18T14:52:28.907Z,30.31
2023-06-18T14:54:56.622Z,30.08
2023-06-18T14:57:24.447Z,30.09
2023-06-18T14:59:54.888Z,29.96
2023-06-18T15:02:29.091Z,30.03
2023-06-18T15:04:59.148Z,29.83
2023-06-18T15:07:27.231Z,29.75
2023-06-18T15:09:55.037Z,29.55
2023-06-18T15:12:22.955Z,29.53
2023-06-18T15:14:50.799Z,29.44
2023-06-18T15:17:20.999Z,29.10
2023-06-18T15:19:56.203Z,29.45
2023-06-18T15:22:24.426Z,29.34
2023-06-18T15:24:52.251Z,29.23
2023-06-18T15:27:20.066Z,29.31
2023-06-18T15:29:47.877Z,29.09
2023-06-18T15:32:15.701Z,29.16
2023-06-18T15:34:44.866Z,28.92
2023-06-18T15:37:13.760Z,29.15
2023-06-18T15:39:46.978Z,29.25
2023-06-18T15:42:14.847Z,29.04
2023-06-18T15:44:42.709Z,29.29
2023-06-18T15:47:10.564Z,28.98
2023-06-18T15:49:38.407Z,28.81
2023-06-18T15:52:08.472Z,28.93
2023-06-18T15:54:36.323Z,28.79
2023-06-18T15:57:04.363Z,28.85
2023-06-18T15:59:32.262Z,28.83
2023-06-18T16:02:00.368Z,28.75
2023-06-18T16:04:28.636Z,28.71
2023-06-18T16:06:56.522Z,28.55
2023-06-18T16:09:25.755Z,28.44
2023-06-18T16:11:53.500Z,28.28
2023-06-18T16:14:21.315Z,28.22
2023-06-18T16:16:49.245Z,28.25
2023-06-18T16:19:17.722Z,28.05
2023-06-18T16:21:45.501Z,27.97
2023-06-18T16:24:13.396Z,27.92
2023-06-18T16:26:42.609Z,27.77
2023-06-18T16:29:10.605Z,27.69
2023-06-18T16:31:38.358Z,27.56
2023-06-18T16:34:06.352Z,27.54
2023-06-18T16:36:34.124Z,27.34
2023-06-18T16:39:02.011Z,27.31
2023-06-18T16:41:29.862Z,27.18
2023-06-18T16:43:58.960Z,27.12
2023-06-18T16:46:26.894Z,26.96
2023-06-18T16:48:54.709Z,26.78
2023-06-18T16:51:22.471Z,26.63
2023-06-18T16:53:51.207Z,26.63
2023-06-18T16:56:19.018Z,26.62
2023-06-18T16:58:46.975Z,26.64
2023-06-18T17:01:16.462Z,26.64
2023-06-18T17:03:45.048Z,26.58
2023-06-18T17:06:12.952Z,26.51
2023-06-18T17:08:40.778Z,26.45
2023-06-18T17:11:09.180Z,26.45
2023-06-18T17:13:37.784Z,26.41
2023-06-18T17:16:06.573Z,26.37
2023-06-18T17:18:35.875Z,26.39
2023-06-18T17:21:03.862Z,26.34
2023-06-18T17:23:31.693Z,26.21
2023-06-18T17:25:59.493Z,26.16
2023-06-18T17:28:27.998Z,26.14
2023-06-18T17:30:58.854Z,26.32
2023-06-18T17:33:26.855Z,26.34
2023-06-18T17:35:56.482Z,26.49
2023-06-18T17:38:24.568Z,27.07
2023-06-18T17:40:52.479Z,26.65
2023-06-18T17:43:23.305Z,26.55
2023-06-18T17:46:12.028Z,26.35
2023-06-18T17:48:39.981Z,26.47
2023-06-18T17:51:09.169Z,26.62
2023-06-18T17:53:37.020Z,26.69
2023-06-18T17:56:05.289Z,26.84
2023-06-18T17:58:33.134Z,26.78
2023-06-18T18:01:00.866Z,26.84
2023-06-18T18:03:30.086Z,26.87
2023-06-18T18:05:57.896Z,26.84
2023-06-18T18:08:27.099Z,26.90
2023-06-18T18:10:54.921Z,26.73
2023-06-18T18:13:24.418Z,26.68
2023-06-18T18:15:52.191Z,26.51
2023-06-18T18:18:20.086Z,26.45
2023-06-18T18:20:48.014Z,26.38
2023-06-18T18:23:15.818Z,26.21
2023-06-18T18:25:45.119Z,26.06
2023-06-18T18:28:13.335Z,26.10
2023-06-18T18:30:41.607Z,26.16
2023-06-18T18:33:09.922Z,26.21
2023-06-18T18:35:37.863Z,26.35
2023-06-18T18:38:05.884Z,26.31
2023-06-18T18:40:33.850Z,26.34
2023-06-18T18:43:03.003Z,25.94
2023-06-18T18:45:30.780Z,25.88
2023-06-18T18:47:58.679Z,25.78
2023-06-18T18:50:26.531Z,25.81
2023-06-18T18:52:54.422Z,25.84
2023-06-18T18:55:22.230Z,25.83
2023-06-18T18:57:50.175Z,25.67
2023-06-18T19:00:19.936Z,25.55
2023-06-18T19:02:47.833Z,25.35
2023-06-18T19:05:15.689Z,25.34
2023-06-18T19:07:43.490Z,25.31
2023-06-18T19:10:12.290Z,25.28
2023-06-18T19:12:40.062Z,25.19
2023-06-18T19:15:08.655Z,25.11
2023-06-18T19:17:39.596Z,24.94
2023-06-18T19:20:08.428Z,24.76
2023-06-18T19:22:36.201Z,24.71
2023-06-18T19:25:06.095Z,24.65
2023-06-18T19:27:34.551Z,24.59
2023-06-18T19:30:02.560Z,24.51
2023-06-18T19:32:30.303Z,24.42
2023-06-18T19:34:59.452Z,24.33
2023-06-18T19:37:27.303Z,24.24
2023-06-18T19:39:55.067Z,24.18
2023-06-18T19:42:22.900Z,24.07
2023-06-18T19:44:54.000Z,23.89
2023-06-18T19:47:21.944Z,23.91
2023-06-18T19:49:50.520Z,23.87
2023-06-18T19:52:19.692Z,23.84
2023-06-18T19:54:47.513Z,23.74
2023-06-18T19:57:15.370Z,23.71
2023-06-18T19:59:43.120Z,23.67
2023-06-18T20:02:11.051Z,23.61
2023-06-18T20:04:38.788Z,23.54
2023-06-18T20:07:06.958Z,23.56
2023-06-18T20:09:36.037Z,23.53
2023-06-18T20:12:04.100Z,23.53
2023-06-18T20:14:31.833Z,23.48
2023-06-18T20:16:59.670Z,23.42
2023-06-18T20:19:27.444Z,23.40
2023-06-18T20:21:55.185Z,23.38
2023-06-18T20:24:24.494Z,23.38
2023-06-18T20:26:54.814Z,23.35
2023-06-18T20:29:22.610Z,23.33
2023-06-18T20:31:50.641Z,23.28
2023-06-18T20:34:18.451Z,23.24
2023-06-18T20:36:46.314Z,23.22
2023-06-18T20:39:14.082Z,23.25
2023-06-18T20:41:41.955Z,23.17
2023-06-18T20:44:11.065Z,23.20
2023-06-18T20:46:39.233Z,23.16
2023-06-18T20:49:07.032Z,23.17
2023-06-18T20:51:34.821Z,23.17
2023-06-18T20:54:02.606Z,23.15
2023-06-18T20:56:30.537Z,23.11
2023-06-18T20:58:58.448Z,23.14
2023-06-18T21:01:30.195Z,23.14
2023-06-18T21:03:58.502Z,23.13
2023-06-18T21:06:26.315Z,23.13
2023-06-18T21:08:54.193Z,23.03
2023-06-18T21:11:23.138Z,23.11
2023-06-18T21:13:51.077Z,23.02
2023-06-18T21:16:19.065Z,22.98
2023-06-18T21:18:48.473Z,23.00
2023-06-18T21:21:16.650Z,23.01
2023-06-18T21:23:44.714Z,22.95
2023-06-18T21:26:14.667Z,22.90
2023-06-18T21:28:42.747Z,22.89
2023-06-18T21:31:11.742Z,23.01
2023-06-18T21:33:39.788Z,23.08
2023-06-18T21:36:08.934Z,23.06
2023-06-18T21:38:36.702Z,23.07
2023-06-18T21:41:04.513Z,22.98
2023-06-18T21:43:32.345Z,22.96
2023-06-18T21:46:02.200Z,22.87
2023-06-18T21:48:30.054Z,22.82
2023-06-18T21:50:59.399Z,22.81
2023-06-18T21:53:29.421Z,22.81
2023-06-18T21:55:59.225Z,22.85
2023-06-18T21:58:27.056Z,22.94
2023-06-18T22:00:55.078Z,22.97
2023-06-18T22:03:24.287Z,23.09
2023-06-18T22:05:52.191Z,23.20
2023-06-18T22:08:24.819Z,23.30
2023-06-18T22:10:54.585Z,23.41
2023-06-18T22:13:22.342Z,23.53
2023-06-18T22:15:50.112Z,23.52
2023-06-18T22:18:17.967Z,23.62
2023-06-18T22:20:45.685Z,23.65
2023-06-18T22:23:13.462Z,23.68
2023-06-18T22:25:41.282Z,23.66
2023-06-18T22:28:10.442Z,23.65
2023-06-18T22:30:38.364Z,23.68
2023-06-18T22:33:06.282Z,23.71
2023-06-18T22:35:34.173Z,23.78
2023-06-18T22:38:01.970Z,23.69
2023-06-18T22:40:29.770Z,23.70
2023-06-18T22:42:57.531Z,23.74
2023-06-18T22:45:27.208Z,23.78
2023-06-18T22:47:56.131Z,23.80
2023-06-18T22:50:24.177Z,23.81
2023-06-18T22:52:52.144Z,23.80
2023-06-18T22:55:20.026Z,23.76
2023-06-18T22:57:47.851Z,23.75
2023-06-18T23:00:16.815Z,23.76
2023-06-18T23:02:46.788Z,23.79
2023-06-18T23:05:15.001Z,23.77
2023-06-18T23:07:42.782Z,23.78
2023-06-18T23:10:11.863Z,23.75
2023-06-18T23:12:39.692Z,23.75
2023-06-18T23:15:08.685Z,23.74
2023-06-18T23:17:42.587Z,23.69
2023-06-18T23:20:13.783Z,23.64
2023-06-18T23:22:44.094Z,23.63
2023-06-18T23:25:12.337Z,23.59
2023-06-18T23:27:41.448Z,23.59
2023-06-18T23:30:10.597Z,23.52
2023-06-18T23:32:39.536Z,23.43
2023-06-18T23:35:08.323Z,23.42
2023-06-18T23:37:37.508Z,23.44
2023-06-18T23:40:09.882Z,23.37
2023-06-18T23:42:37.814Z,23.33
2023-06-18T23:45:06.797Z,23.26
2023-06-18T23:47:34.693Z,23.21
2023-06-18T23:50:02.621Z,23.18
2023-06-18T23:52:30.359Z,23.21
2023-06-18T23:54:59.554Z,23.13
2023-06-18T23:57:28.344Z,23.14
2023-06-18T23:59:56.125Z,23.13
